Sessoms, Georgia
Current Conditions -  °F | °C
As of 4:53 PM on Thursday 27 Nov 2014 (Local Time) from KAMG Reporting Station
Clear Clear  
Wind Chill: 53°   Ceiling: Unl
Heat Index: 53°   Visibility: 10mi
Dew Point: 29°   Wind: 14mph
Humidity: 40%   Direction: 310°NW
Pressure: 30.24"   Gusts: 22mph
Location:  31.4253°N, 82.5972°W
Report Text: KAMG 272153Z AUTO 31012G19KT 10SM CLR 12/M02 A3024 RMK AO2 SLP240 T01171017
Loading
Personal Weather Stations






























Interactive Weather Map New forecast layout! Learn more

10-Day Weather Forecast

Advertisements
Track Severe Weather on mobile